Time;durP1;ratioP1;P1;durP2;ratioP2;P2;SDS_P1;SDS_P2;PMS_P1;PMS_P2;Temp;Humidity;BMP_temperature;BMP_pressure;BME280_temperature;BME280_humidity;BME280_pressure;Samples;Min_cycle;Max_cycle;Signal;HPM_P1;HPM_P2
2022/11/18 00:02:14;;;;;;;32.00;18.93;;;3.00;99.90;;;;;;10208731;29;20342;-90
2022/11/18 00:07:16;;;;;;;37.90;19.57;;;3.20;99.90;;;;;;10208110;29;20690;-90
2022/11/18 00:17:39;;;;;;;29.30;17.80;;;1.30;99.90;;;;;;10209229;29;20234;-89
2022/11/18 00:22:42;;;;;;;31.77;18.73;;;2.50;99.90;;;;;;10208967;29;20258;-90
2022/11/18 00:27:44;;;;;;;26.57;16.83;;;1.30;99.90;;;;;;10205843;29;20652;-90
2022/11/18 00:32:47;;;;;;;27.27;17.03;;;2.10;99.90;;;;;;10207549;29;20289;-90
2022/11/18 00:37:49;;;;;;;27.07;17.23;;;2.00;99.90;;;;;;10208365;29;20339;-90
2022/11/18 00:42:52;;;;;;;33.07;19.03;;;1.40;99.90;;;;;;10193202;29;20286;-90
2022/11/18 00:47:55;;;;;;;31.27;17.37;;;1.30;99.90;;;;;;10207375;29;20285;-90
2022/11/18 00:52:57;;;;;;;33.30;18.47;;;1.50;99.90;;;;;;10205713;29;20214;-90
2022/11/18 00:58:00;;;;;;;32.87;19.60;;;1.60;99.90;;;;;;10208386;29;20293;-90
2022/11/18 01:03:02;;;;;;;31.97;18.57;;;6.60;99.90;;;;;;10207202;29;20313;-90
2022/11/18 01:08:07;;;;;;;29.70;18.10;;;2.90;99.90;;;;;;10181634;29;20590;-90
2022/11/18 01:13:19;;;;;;;31.43;18.93;;;1.80;99.90;;;;;;10192010;29;20239;-90
2022/11/18 01:18:28;;;;;;;32.53;19.73;;;1.70;99.90;;;;;;10190983;29;20263;-90
2022/11/18 01:23:32;;;;;;;30.67;18.23;;;3.20;99.90;;;;;;10202897;29;20313;-90
2022/11/18 01:28:35;;;;;;;50.43;29.93;;;3.50;99.90;;;;;;10208015;29;20743;-90
2022/11/18 01:33:37;;;;;;;40.33;22.63;;;3.00;99.90;;;;;;10207483;29;20266;-90
2022/11/18 01:38:40;;;;;;;31.67;18.17;;;1.00;99.90;;;;;;10207808;29;20206;-90
2022/11/18 01:43:59;;;;;;;86.77;42.07;;;0.90;99.90;;;;;;10207319;29;20255;-90
2022/11/18 01:49:07;;;;;;;36.87;20.77;;;1.60;99.90;;;;;;10204302;29;20536;-90
2022/11/18 01:54:15;;;;;;;33.87;21.10;;;0.50;99.90;;;;;;10181253;29;20657;-90
2022/11/18 01:59:23;;;;;;;38.80;23.20;;;0.90;99.90;;;;;;10204037;29;20700;-90
2022/11/18 02:04:26;;;;;;;40.20;23.43;;;-0.50;99.90;;;;;;10205397;29;20234;-89
2022/11/18 02:09:29;;;;;;;32.23;19.13;;;;;;;;;;10183256;29;20214;-90
2022/11/18 02:14:36;;;;;;;38.20;19.33;;;-1.40;99.90;;;;;;10203270;29;20696;-90
2022/11/18 02:20:16;;;;;;;38.97;18.67;;;-1.80;99.90;;;;;;10206032;29;20385;-90
2022/11/18 02:25:44;;;;;;;29.93;16.63;;;-1.90;99.90;;;;;;10204207;29;20613;-89
2022/11/18 02:30:52;;;;;;;32.77;16.80;;;-2.00;99.90;;;;;;10205075;29;20333;-90
2022/11/18 02:36:14;;;;;;;42.20;21.90;;;-2.00;99.90;;;;;;10213283;29;20210;-90
2022/11/18 02:41:25;;;;;;;36.87;18.70;;;-2.00;99.90;;;;;;10212552;29;20309;-90
2022/11/18 02:46:32;;;;;;;29.07;16.40;;;-1.80;99.90;;;;;;10212854;29;20614;-90
2022/11/18 02:51:35;;;;;;;36.50;19.07;;;-1.40;99.90;;;;;;10212897;29;20652;-89
2022/11/18 02:56:38;;;;;;;32.00;19.33;;;-0.20;99.90;;;;;;10210889;29;20220;-90
2022/11/18 03:01:41;;;;;;;38.77;21.13;;;-0.40;99.90;;;;;;10211957;29;20306;-89
2022/11/18 03:07:01;;;;;;;34.97;20.23;;;-1.00;99.90;;;;;;10202838;29;20288;-89
2022/11/18 03:12:31;;;;;;;43.13;22.07;;;0.30;99.90;;;;;;10208406;29;20271;-89
2022/11/18 03:18:24;;;;;;;39.93;21.07;;;-0.60;99.90;;;;;;10212383;29;20290;-89
2022/11/18 03:23:31;;;;;;;39.50;21.80;;;-1.10;99.90;;;;;;10167584;29;20259;-89
2022/11/18 03:28:49;;;;;;;37.27;21.20;;;-1.40;99.90;;;;;;10159897;29;21218;-89
2022/11/18 03:34:03;;;;;;;43.53;22.10;;;-1.30;99.90;;;;;;10156639;29;20251;-89
2022/11/18 03:39:09;;;;;;;44.70;25.47;;;-1.50;99.90;;;;;;10167239;29;20317;-88
2022/11/18 03:44:19;;;;;;;43.03;22.03;;;;;;;;;;10128602;29;20264;-89
2022/11/18 03:49:29;;;;;;;43.23;23.53;;;-2.10;99.90;;;;;;10164651;29;20243;-88
2022/11/18 03:54:36;;;;;;;40.43;22.47;;;-2.20;99.90;;;;;;10157642;29;20235;-88
2022/11/18 03:59:52;;;;;;;47.90;22.93;;;-2.30;99.90;;;;;;10184480;29;20310;-88
2022/11/18 04:04:56;;;;;;;42.27;21.37;;;-1.90;99.90;;;;;;10192241;29;20226;-89
2022/11/18 04:10:06;;;;;;;40.87;22.40;;;-2.10;99.90;;;;;;10191219;29;20207;-88
2022/11/18 04:15:09;;;;;;;43.87;21.93;;;-1.90;99.90;;;;;;10209067;29;20302;-89
2022/11/18 04:20:20;;;;;;;41.37;22.53;;;-1.90;99.90;;;;;;10201327;29;20254;-89
2022/11/18 04:25:25;;;;;;;39.40;21.07;;;-1.80;99.90;;;;;;10207738;29;20295;-88
2022/11/18 04:30:28;;;;;;;35.17;19.40;;;-1.70;99.90;;;;;;10199067;29;20266;-88
2022/11/18 04:35:30;;;;;;;38.00;21.03;;;-1.60;99.90;;;;;;10208122;29;20299;-89
2022/11/18 04:40:33;;;;;;;33.73;20.70;;;-0.80;99.90;;;;;;10205341;29;20250;-89
2022/11/18 04:45:35;;;;;;;35.13;20.20;;;-0.70;99.90;;;;;;10195630;29;20240;-89
2022/11/18 04:50:38;;;;;;;40.70;20.87;;;-0.30;99.90;;;;;;10190946;29;20329;-89
2022/11/18 04:55:40;;;;;;;34.80;19.63;;;0.50;99.90;;;;;;10190737;29;20659;-89
2022/11/18 05:00:42;;;;;;;35.17;19.87;;;1.10;99.90;;;;;;10192558;29;20348;-89
2022/11/18 05:05:45;;;;;;;37.67;20.30;;;0.90;99.90;;;;;;10206263;28;20735;-89
2022/11/18 05:10:47;;;;;;;38.87;21.27;;;2.90;99.90;;;;;;10192099;29;20283;-89
2022/11/18 05:15:50;;;;;;;50.23;28.10;;;0.10;99.90;;;;;;10192299;29;20745;-89
2022/11/18 05:20:52;;;;;;;41.67;24.73;;;-0.50;99.90;;;;;;10190232;29;20342;-89
2022/11/18 05:25:55;;;;;;;48.43;24.07;;;-0.40;99.90;;;;;;10191488;29;20800;-89
2022/11/18 05:31:12;;;;;;;43.93;24.40;;;-0.90;99.90;;;;;;10191198;29;20307;-89
2022/11/18 05:36:17;;;;;;;44.77;24.93;;;-1.00;99.90;;;;;;10202682;29;20280;-89
2022/11/18 05:46:41;;;;;;;48.57;24.30;;;-1.20;99.90;;;;;;10209479;29;20238;-88
2022/11/18 05:51:43;;;;;;;46.70;24.87;;;-0.50;99.90;;;;;;10215699;29;20668;-89
2022/11/18 05:56:46;;;;;;;44.37;24.27;;;-0.90;99.90;;;;;;10215771;29;20234;-88
2022/11/18 06:01:57;;;;;;;49.17;26.00;;;-1.00;99.90;;;;;;10214756;29;20739;-90
2022/11/18 06:07:04;;;;;;;48.60;23.73;;;-0.10;99.90;;;;;;10214375;29;20240;-91
2022/11/18 06:12:11;;;;;;;42.87;24.90;;;-0.70;99.90;;;;;;10213144;29;20234;-90
2022/11/18 06:17:23;;;;;;;44.00;22.13;;;-0.90;99.90;;;;;;10214213;29;20239;-89
2022/11/18 06:22:25;;;;;;;42.67;23.00;;;-0.20;99.90;;;;;;10214320;29;20251;-90
2022/11/18 06:27:29;;;;;;;40.37;20.90;;;1.50;99.90;;;;;;10213389;29;20649;-90
2022/11/18 06:32:32;;;;;;;36.27;21.07;;;0.40;99.90;;;;;;10207129;29;20278;-90
2022/11/18 06:37:34;;;;;;;38.37;19.57;;;-0.50;99.90;;;;;;10213263;29;20216;-90
2022/11/18 06:47:59;;;;;;;47.80;28.77;;;-0.10;99.90;;;;;;10198485;29;20245;-91
2022/11/18 06:53:02;;;;;;;39.27;22.63;;;2.20;99.90;;;;;;10209176;29;20312;-91
2022/11/18 06:58:05;;;;;;;49.70;30.97;;;3.10;99.90;;;;;;10216403;29;20199;-94
2022/11/18 07:03:07;;;;;;;33.37;21.40;;;5.10;92.80;;;;;;10225896;29;20259;-94
2022/11/18 07:08:10;;;;;;;36.57;22.70;;;5.00;99.90;;;;;;10226812;29;20302;-94
2022/11/18 07:13:12;;;;;;;47.87;30.83;;;3.50;99.90;;;;;;10228017;29;20210;-94
2022/11/18 07:18:15;;;;;;;32.87;22.03;;;5.60;87.20;;;;;;10238375;29;20207;-95
2022/11/18 07:23:19;;;;;;;50.90;20.67;;;5.80;99.90;;;;;;10221545;28;20694;-89
2022/11/18 07:28:22;;;;;;;149.03;26.17;;;6.90;95.00;;;;;;10208159;29;20290;-89
2022/11/18 07:33:24;;;;;;;62.73;18.17;;;6.30;99.10;;;;;;10211588;29;20266;-90
2022/11/18 07:38:27;;;;;;;45.07;14.43;;;6.80;67.40;;;;;;10209064;29;20218;-90
2022/11/18 07:43:29;;;;;;;103.97;23.20;;;8.50;81.20;;;;;;10208473;29;20270;-90
2022/11/18 07:48:32;;;;;;;62.27;19.87;;;9.80;83.20;;;;;;10209303;29;20231;-90
2022/11/18 07:53:35;;;;;;;63.13;17.67;;;8.80;91.10;;;;;;10208404;29;20243;-89
2022/11/18 07:58:38;;;;;;;57.40;18.50;;;7.10;84.50;;;;;;10209103;29;20230;-90
2022/11/18 08:03:41;;;;;;;19.73;9.70;;;7.90;97.90;;;;;;10208057;29;20258;-90
2022/11/18 08:08:43;;;;;;;63.90;20.73;;;8.70;72.90;;;;;;10209100;29;20243;-90
2022/11/18 08:13:46;;;;;;;7.23;5.50;;;8.70;98.50;;;;;;10206349;29;20291;-89
2022/11/18 08:18:49;;;;;;;45.43;15.20;;;8.20;54.30;;;;;;10216057;29;20231;-90
2022/11/18 08:23:56;;;;;;;56.07;20.57;;;9.00;97.30;;;;;;10181260;29;20247;-90
2022/11/18 08:28:58;;;;;;;56.97;21.07;;;7.40;99.90;;;;;;10222368;28;20235;-90
2022/11/18 08:34:03;;;;;;;28.93;12.00;;;11.00;93.50;;;;;;10204346;29;20237;-89
2022/11/18 08:39:07;;;;;;;22.80;9.60;;;9.60;61.00;;;;;;10205268;29;20251;-88
2022/11/18 08:44:12;;;;;;;37.80;16.47;;;6.30;79.60;;;;;;10208009;29;20258;-89
2022/11/18 08:49:15;;;;;;;37.77;26.03;;;8.20;98.70;;;;;;10200260;29;20283;-89
2022/11/18 08:54:18;;;;;;;22.73;11.40;;;8.10;76.20;;;;;;10180244;29;20219;-89
2022/11/18 08:59:20;;;;;;;21.70;11.77;;;8.10;90.90;;;;;;10208497;29;20282;-89
2022/11/18 09:04:23;;;;;;;29.43;13.43;;;6.60;96.30;;;;;;10207385;29;20302;-88
2022/11/18 09:09:26;;;;;;;31.47;13.60;;;8.40;99.10;;;;;;10199424;29;20210;-89
2022/11/18 09:14:29;;;;;;;33.17;16.00;;;10.10;97.30;;;;;;10170026;29;20276;-89
2022/11/18 09:19:51;;;;;;;14.97;7.50;;;8.20;99.90;;;;;;10177218;29;20270;-89
2022/11/18 09:24:54;;;;;;;7.07;5.30;;;7.00;80.90;;;;;;10207028;29;20788;-89
2022/11/18 09:29:56;;;;;;;17.93;8.33;;;6.20;65.70;;;;;;10206955;29;20262;-88
2022/11/18 09:34:59;;;;;;;7.10;5.37;;;9.00;83.90;;;;;;10204840;29;20230;-89
2022/11/18 09:40:01;;;;;;;29.60;14.10;;;10.20;53.40;;;;;;10221354;29;20573;-89
2022/11/18 09:45:27;;;;;;;10.37;5.60;;;7.00;99.90;;;;;;10196103;29;20259;-89
2022/11/18 09:50:29;;;;;;;5.63;3.40;;;7.80;70.20;;;;;;10207342;29;20688;-89
2022/11/18 09:55:53;;;;;;;4.60;3.30;;;3.30;86.20;;;;;;10205847;29;20628;-90
2022/11/18 10:00:56;;;;;;;30.60;13.33;;;6.00;63.90;;;;;;10217767;29;20637;-90
2022/11/18 10:06:15;;;;;;;10.23;5.60;;;9.40;99.90;;;;;;10202099;29;20641;-90
2022/11/18 10:11:33;;;;;;;5.53;3.87;;;7.70;61.90;;;;;;10196538;29;20250;-89
2022/11/18 10:17:08;;;;;;;9.73;5.97;;;2.90;90.00;;;;;;10203882;29;20971;-89
2022/11/18 10:22:46;;;;;;;6.60;5.20;;;3.50;99.90;;;;;;10204611;29;20259;-90
2022/11/18 10:27:49;;;;;;;20.00;9.93;;;4.00;77.00;;;;;;10205987;29;20775;-89
2022/11/18 10:33:15;;;;;;;6.47;5.13;;;5.10;99.90;;;;;;10188870;29;20274;-89
2022/11/18 10:38:19;;;;;;;6.67;4.83;;;3.80;98.10;;;;;;10215241;29;20258;-89
2022/11/18 10:43:40;;;;;;;10.17;6.40;;;2.60;99.30;;;;;;10216097;29;20592;-90
2022/11/18 10:48:43;;;;;;;10.20;5.60;;;1.60;99.90;;;;;;10216132;29;20331;-89
2022/11/18 10:53:45;;;;;;;8.93;5.67;;;2.80;98.80;;;;;;10217039;29;20592;-89
2022/11/18 10:58:49;;;;;;;11.73;8.40;;;1.20;99.90;;;;;;10213238;29;20251;-88
2022/11/18 11:04:10;;;;;;;10.33;5.50;;;2.80;97.90;;;;;;10200980;29;20647;-89
2022/11/18 11:09:12;;;;;;;15.03;9.63;;;1.80;99.90;;;;;;10204309;29;20211;-89
2022/11/18 11:14:44;;;;;;;9.87;6.30;;;2.10;99.90;;;;;;10211672;29;20739;-91
2022/11/18 11:19:55;;;;;;;10.40;6.17;;;3.10;99.90;;;;;;10212063;29;20566;-89
2022/11/18 11:24:58;;;;;;;6.57;5.40;;;3.10;99.90;;;;;;10225413;29;20297;-89
2022/11/18 11:30:20;;;;;;;12.17;7.70;;;3.20;96.90;;;;;;10209499;29;20656;-89
2022/11/18 11:35:28;;;;;;;12.80;10.10;;;2.20;99.90;;;;;;10226370;29;20654;-89
2022/11/18 11:40:45;;;;;;;6.63;4.67;;;1.80;99.90;;;;;;10210747;29;20266;-90
2022/11/18 11:46:25;;;;;;;8.80;6.13;;;2.70;99.90;;;;;;10214609;29;20218;-90
2022/11/18 11:52:01;;;;;;;13.97;8.00;;;3.50;99.90;;;;;;10212368;29;20262;-90
2022/11/18 11:57:28;;;;;;;16.40;9.17;;;3.80;99.90;;;;;;10201488;29;20234;-90
2022/11/18 12:02:49;;;;;;;17.57;10.13;;;5.60;99.90;;;;;;10215271;29;20230;-90
2022/11/18 12:07:56;;;;;;;10.30;5.10;;;7.40;99.90;;;;;;10214423;29;20215;-90
2022/11/18 12:13:10;;;;;;;7.50;5.20;;;4.60;80.00;;;;;;10211692;29;20215;-90
2022/11/18 12:18:20;;;;;;;7.90;5.60;;;2.20;99.90;;;;;;10205926;29;20262;-90
2022/11/18 12:23:25;;;;;;;7.03;5.30;;;1.30;99.90;;;;;;10208006;29;20769;-91
2022/11/18 12:28:32;;;;;;;10.47;7.20;;;1.10;99.90;;;;;;10207663;29;20226;-91
2022/11/18 12:33:45;;;;;;;7.43;5.80;;;2.30;99.90;;;;;;10229133;29;20649;-96
2022/11/18 12:38:48;;;;;;;9.27;6.57;;;3.50;95.40;;;;;;10215054;29;20541;-94
2022/11/18 12:43:50;;;;;;;7.70;5.23;;;2.50;99.90;;;;;;10212231;29;20230;-95
2022/11/18 12:48:53;;;;;;;7.30;5.40;;;3.20;99.90;;;;;;10211649;29;20254;-95
2022/11/18 12:53:56;;;;;;;11.03;5.73;;;1.70;99.90;;;;;;10210937;29;20316;-96
2022/11/18 12:59:00;;;;;;;9.37;5.93;;;3.30;99.30;;;;;;10211981;28;20629;-95
2022/11/18 13:04:18;;;;;;;10.50;5.40;;;2.10;99.90;;;;;;10211225;29;20250;-96
2022/11/18 13:09:24;;;;;;;6.37;4.70;;;1.30;99.90;;;;;;10215201;28;20208;-96
2022/11/18 13:19:55;;;;;;;8.97;5.67;;;1.80;99.90;;;;;;10213947;29;20209;-96
2022/11/18 13:24:58;;;;;;;5.97;4.83;;;2.10;99.90;;;;;;10213995;29;20254;-96
2022/11/18 13:30:05;;;;;;;14.50;4.30;;;4.60;99.90;;;;;;10218027;29;20227;-95
2022/11/18 13:35:18;;;;;;;6.93;4.90;;;3.80;99.90;;;;;;10220733;29;20199;-94
2022/11/18 13:40:30;;;;;;;5.33;4.00;;;3.20;99.90;;;;;;10219100;29;20604;-96
2022/11/18 13:45:33;;;;;;;7.80;5.00;;;2.30;97.60;;;;;;10231767;28;20226;-96
2022/11/18 13:50:51;;;;;;;5.93;3.93;;;2.00;99.90;;;;;;10220316;29;20238;-95
2022/11/18 13:56:06;;;;;;;7.50;3.27;;;1.30;99.10;;;;;;10231422;29;20194;-95
2022/11/18 14:01:24;;;;;;;6.93;4.10;;;0.90;99.90;;;;;;10217892;29;20302;-96
2022/11/18 14:06:38;;;;;;;5.07;4.00;;;0.90;99.90;;;;;;10231254;29;20609;-96
2022/11/18 14:11:57;;;;;;;5.60;4.17;;;0.30;99.90;;;;;;10220736;29;20245;-96
2022/11/18 14:17:23;;;;;;;7.83;4.10;;;1.20;99.90;;;;;;10226148;29;20199;-96
2022/11/18 14:22:29;;;;;;;7.93;3.70;;;0.80;99.90;;;;;;10239884;29;20226;-96
2022/11/18 14:27:38;;;;;;;4.33;3.40;;;1.90;99.90;;;;;;10231647;29;20260;-96
2022/11/18 14:38:34;;;;;;;20.30;11.70;;;0.70;99.90;;;;;;10883056;23;20627;-89
2022/11/18 14:43:56;;;;;;;26.23;15.43;;;1.20;99.60;;;;;;10217768;29;20287;-89
2022/11/18 14:49:04;;;;;;;12.97;6.00;;;0.20;99.90;;;;;;10197984;29;20565;-90
2022/11/18 14:54:10;;;;;;;10.00;6.53;;;0.00;99.90;;;;;;10226441;29;20262;-89
2022/11/18 14:59:14;;;;;;;10.03;6.07;;;-0.10;99.90;;;;;;10211257;29;20214;-90
2022/11/18 15:04:17;;;;;;;14.03;6.80;;;-0.30;99.90;;;;;;10223229;29;20654;-90
2022/11/18 15:09:20;;;;;;;10.30;6.10;;;-0.40;99.90;;;;;;10242969;29;20219;-89
2022/11/18 15:14:23;;;;;;;13.63;7.00;;;-0.50;99.90;;;;;;10267655;28;20252;-89
2022/11/18 15:19:25;;;;;;;10.30;4.93;;;-0.60;99.90;;;;;;10264589;28;20187;-89
2022/11/18 15:24:28;;;;;;;8.47;5.53;;;-0.60;99.90;;;;;;10305091;28;20226;-89
2022/11/18 15:29:30;;;;;;;9.03;5.60;;;-0.60;99.90;;;;;;10298207;28;20175;-89
2022/11/18 15:34:33;;;;;;;11.57;5.53;;;-0.60;99.90;;;;;;10265204;29;20207;-89
2022/11/18 15:39:35;;;;;;;8.53;5.10;;;-0.60;99.90;;;;;;10264462;29;20211;-88
2022/11/18 15:44:38;;;;;;;7.00;5.83;;;-0.60;99.90;;;;;;10259413;29;20208;-88
2022/11/18 15:49:42;;;;;;;9.55;5.43;;;-0.60;99.90;;;;;;9897511;28;9999668;-88
2022/11/18 15:54:44;;;;;;;7.67;5.50;;;-0.60;99.90;;;;;;10259142;29;20199;-89
2022/11/18 15:59:47;;;;;;;8.17;5.27;;;-0.60;99.90;;;;;;10255235;29;20194;-88
2022/11/18 16:04:50;;;;;;;10.93;5.77;;;-0.60;99.90;;;;;;10253433;29;20238;-89
2022/11/18 16:20:36;;;;;;;9.60;5.60;;;-1.00;99.90;;;;;;10252718;29;20207;-88
2022/11/18 16:25:43;;;;;;;10.00;6.13;;;-1.10;99.90;;;;;;10254609;29;20203;-88
2022/11/18 16:36:10;;;;;;;11.03;6.30;;;-1.10;99.90;;;;;;10273875;28;20230;-88
2022/11/18 16:41:31;;;;;;;10.83;5.87;;;-0.90;99.90;;;;;;10254602;29;20186;-88
2022/11/18 16:46:36;;;;;;;10.37;6.23;;;-0.90;99.90;;;;;;10253227;29;20206;-88
2022/11/18 16:51:41;;;;;;;11.40;6.40;;;-0.80;99.90;;;;;;10252990;29;20187;-88
2022/11/18 16:56:44;;;;;;;9.97;5.97;;;-0.70;99.90;;;;;;10228564;28;20211;-88
2022/11/18 17:01:48;;;;;;;9.97;4.90;;;-0.80;99.90;;;;;;10243471;29;20235;-89
2022/11/18 17:06:51;;;;;;;8.93;5.67;;;-0.70;99.90;;;;;;10253324;29;20263;-88
2022/11/18 17:11:55;;;;;;;10.37;5.77;;;-0.70;99.90;;;;;;10227794;29;20224;-89
2022/11/18 17:16:57;;;;;;;8.20;5.93;;;-0.70;99.90;;;;;;10187694;29;20262;-88
2022/11/18 17:22:00;;;;;;;8.70;5.77;;;-0.60;99.90;;;;;;10218089;29;20219;-88
2022/11/18 17:27:02;;;;;;;10.40;5.73;;;-0.60;99.90;;;;;;10236391;28;20648;-88
2022/11/18 17:32:05;;;;;;;10.60;6.33;;;-0.50;99.90;;;;;;10220078;29;20198;-88
2022/11/18 17:37:08;;;;;;;8.07;5.57;;;-0.50;99.90;;;;;;10207370;29;20231;-88
2022/11/18 17:42:13;;;;;;;9.40;6.13;;;-0.50;99.90;;;;;;10223794;29;20584;-88
2022/11/18 17:47:16;;;;;;;12.40;5.90;;;-0.50;99.90;;;;;;10210152;29;20357;-89
2022/11/18 17:52:19;;;;;;;10.27;6.00;;;-0.50;99.90;;;;;;10186538;29;20207;-88
2022/11/18 17:57:21;;;;;;;15.17;6.57;;;-0.50;99.90;;;;;;10236090;29;20629;-88
2022/11/18 18:02:24;;;;;;;13.10;7.43;;;-0.60;99.90;;;;;;10253020;29;20211;-87
2022/11/18 18:07:28;;;;;;;13.33;6.97;;;-0.50;99.90;;;;;;10253515;29;20218;-88
2022/11/18 18:17:52;;;;;;;14.30;7.23;;;-0.60;99.90;;;;;;10222947;29;20211;-87
2022/11/18 18:22:55;;;;;;;18.33;8.60;;;-0.60;99.90;;;;;;10221519;29;20216;-87
2022/11/18 18:27:58;;;;;;;17.33;9.57;;;-0.70;99.90;;;;;;10246766;29;20939;-87
2022/11/18 18:33:00;;;;;;;17.87;8.43;;;-0.70;99.90;;;;;;10242419;29;20206;-88
2022/11/18 18:38:03;;;;;;;13.50;7.83;;;-0.70;99.90;;;;;;10212808;29;20676;-87
2022/11/18 18:43:05;;;;;;;13.17;7.80;;;-0.70;99.90;;;;;;10249818;29;20215;-87
2022/11/18 18:48:08;;;;;;;13.27;7.83;;;-0.70;99.90;;;;;;10230973;29;20211;-87
2022/11/18 18:53:10;;;;;;;15.37;8.33;;;-0.70;99.90;;;;;;10243538;29;20588;-87
2022/11/18 18:58:12;;;;;;;14.53;7.97;;;-0.80;99.90;;;;;;10229224;29;20306;-87
2022/11/18 19:03:15;;;;;;;12.93;7.00;;;-0.70;99.90;;;;;;10228364;29;20286;-87
2022/11/18 19:08:18;;;;;;;12.33;7.60;;;-0.60;99.90;;;;;;10224930;29;20207;-87
2022/11/18 19:13:20;;;;;;;10.27;6.80;;;-0.70;99.90;;;;;;10216927;29;20218;-87
2022/11/18 19:18:23;;;;;;;10.87;7.13;;;-0.80;99.90;;;;;;10222977;28;20211;-87
2022/11/18 19:23:25;;;;;;;13.30;8.33;;;-0.90;99.90;;;;;;10224106;29;20222;-88
2022/11/18 19:28:28;;;;;;;10.03;6.80;;;-0.90;99.90;;;;;;10250038;28;20203;-88
2022/11/18 19:33:30;;;;;;;13.40;7.97;;;-1.00;99.90;;;;;;10249627;29;20557;-87
2022/11/18 19:38:34;;;;;;;11.87;7.00;;;-0.90;99.90;;;;;;10219110;29;20267;-88
2022/11/18 19:43:37;;;;;;;13.43;7.67;;;-0.90;99.90;;;;;;10218935;29;20223;-87
2022/11/18 19:48:39;;;;;;;13.60;8.17;;;-0.80;99.90;;;;;;10213757;29;20251;-87
2022/11/18 19:53:42;;;;;;;16.17;8.30;;;-0.90;99.90;;;;;;10222009;29;20581;-87
2022/11/18 19:58:47;;;;;;;15.93;8.80;;;-0.80;99.90;;;;;;10219646;29;20207;-87
2022/11/18 20:03:53;;;;;;;13.93;9.17;;;-0.90;99.90;;;;;;10220681;29;20223;-88
2022/11/18 20:08:56;;;;;;;16.87;8.43;;;-0.90;99.90;;;;;;10228224;29;20262;-87
2022/11/18 20:13:59;;;;;;;16.10;8.87;;;-0.90;99.90;;;;;;10214761;29;20203;-87
2022/11/18 20:19:03;;;;;;;12.57;7.80;;;-0.90;99.90;;;;;;10205124;29;20205;-87
2022/11/18 20:24:15;;;;;;;10.23;7.40;;;-0.90;99.90;;;;;;10198380;29;20234;-87
2022/11/18 20:29:18;;;;;;;12.27;7.13;;;-0.90;99.90;;;;;;10215082;29;20199;-87
2022/11/18 20:34:21;;;;;;;11.03;7.43;;;-0.90;99.90;;;;;;10216963;29;20736;-88
2022/11/18 20:39:24;;;;;;;12.37;7.37;;;-0.90;99.90;;;;;;10219625;29;20282;-87
2022/11/18 20:44:26;;;;;;;14.13;7.50;;;-0.90;99.90;;;;;;10219848;29;20609;-87
2022/11/18 20:49:28;;;;;;;15.50;7.17;;;-0.90;99.90;;;;;;10195847;29;20207;-87
2022/11/18 20:54:32;;;;;;;13.90;7.63;;;-1.00;99.90;;;;;;10209984;28;20232;-87
2022/11/18 20:59:34;;;;;;;12.33;8.37;;;-1.00;99.90;;;;;;10210029;28;20199;-87
2022/11/18 21:04:37;;;;;;;18.70;8.53;;;-1.10;99.90;;;;;;10225839;29;20274;-88
2022/11/18 21:09:39;;;;;;;14.43;8.73;;;-1.00;99.90;;;;;;10207795;29;20274;-88
2022/11/18 21:14:42;;;;;;;14.53;8.60;;;-1.20;99.90;;;;;;10213700;29;20230;-88
2022/11/18 21:19:45;;;;;;;16.97;9.27;;;-1.20;99.90;;;;;;10203825;29;20685;-88
2022/11/18 21:24:49;;;;;;;15.10;9.70;;;-1.30;99.90;;;;;;10204172;29;20689;-88
2022/11/18 21:29:52;;;;;;;19.53;10.73;;;-1.40;99.90;;;;;;10204368;29;20226;-88
2022/11/18 21:34:54;;;;;;;19.57;10.00;;;-1.50;99.90;;;;;;10203937;29;20305;-87
2022/11/18 21:39:57;;;;;;;18.50;9.47;;;-1.70;99.90;;;;;;10204930;29;20242;-88
2022/11/18 21:44:59;;;;;;;23.17;12.17;;;-1.80;99.90;;;;;;10202099;29;20258;-87
2022/11/18 21:50:02;;;;;;;21.60;10.60;;;;;;;;;;10205147;29;20254;-87
2022/11/18 21:55:05;;;;;;;22.40;12.27;;;-2.10;99.90;;;;;;10204712;29;20684;-89
2022/11/18 22:00:08;;;;;;;18.10;9.97;;;-2.20;99.90;;;;;;10208397;29;20211;-87
2022/11/18 22:05:13;;;;;;;19.73;11.60;;;-2.40;99.90;;;;;;10207056;29;20683;-88
2022/11/18 22:10:17;;;;;;;24.90;11.67;;;-2.50;99.90;;;;;;10203050;29;20235;-88
2022/11/18 22:15:20;;;;;;;18.53;10.93;;;-2.60;99.90;;;;;;10201089;29;20210;-88
2022/11/18 22:20:22;;;;;;;18.50;9.40;;;-2.60;99.90;;;;;;10184981;29;20873;-88
2022/11/18 22:25:25;;;;;;;16.93;10.27;;;-2.70;99.90;;;;;;10204408;29;20239;-87
2022/11/18 22:30:28;;;;;;;15.47;8.97;;;-2.80;99.90;;;;;;10206304;29;20553;-87
2022/11/18 22:35:30;;;;;;;21.90;9.47;;;-2.90;99.90;;;;;;10212242;29;20654;-87
2022/11/18 22:40:33;;;;;;;15.20;8.83;;;-2.90;99.90;;;;;;10189260;29;20243;-87
2022/11/18 22:45:35;;;;;;;13.17;7.87;;;-3.00;99.90;;;;;;10175759;29;20259;-87
2022/11/18 22:50:41;;;;;;;16.63;9.17;;;-3.10;99.90;;;;;;10187974;29;20235;-87
2022/11/18 22:55:44;;;;;;;16.50;8.63;;;-3.10;99.90;;;;;;10208937;29;20962;-86
2022/11/18 23:00:46;;;;;;;14.83;8.83;;;-3.20;99.90;;;;;;10202190;29;20286;-87
2022/11/18 23:05:49;;;;;;;16.23;9.23;;;-3.30;99.90;;;;;;10206103;29;20231;-86
2022/11/18 23:10:52;;;;;;;16.77;10.07;;;;;;;;;;10200783;29;20589;-87
2022/11/18 23:15:58;;;;;;;19.77;9.63;;;-3.40;99.90;;;;;;10214980;29;20203;-86
2022/11/18 23:21:02;;;;;;;18.30;9.23;;;-3.50;99.90;;;;;;10213561;29;20616;-87
2022/11/18 23:26:10;;;;;;;16.20;8.10;;;-3.50;99.90;;;;;;10212439;29;20258;-87
2022/11/18 23:31:23;;;;;;;16.40;10.30;;;-3.60;99.90;;;;;;10212577;29;20569;-87
2022/11/18 23:36:26;;;;;;;16.63;9.47;;;-3.70;99.90;;;;;;10213466;29;20286;-86
2022/11/18 23:41:29;;;;;;;18.37;10.37;;;-3.80;99.90;;;;;;10199636;28;20653;-87
2022/11/18 23:46:32;;;;;;;17.47;9.83;;;-3.90;99.90;;;;;;10207936;29;20270;-87
2022/11/18 23:51:35;;;;;;;18.13;9.57;;;-3.90;99.90;;;;;;10212231;29;20195;-86
2022/11/18 23:56:37;;;;;;;22.03;10.17;;;-4.00;99.90;;;;;;10174045;29;20208;-87
